Time;durP1;ratioP1;P1;durP2;ratioP2;P2;SDS_P1;SDS_P2;PMS_P1;PMS_P2;Temp;Humidity;BMP_temperature;BMP_pressure;BME280_temperature;BME280_humidity;BME280_pressure;Samples;Min_cycle;Max_cycle;Signal;HPM_P1;HPM_P2
2022/01/04 00:01:29;;;;;;;1.97;1.87;;;9.20;99.90;;;;;;4989313;28;20226;-86
2022/01/04 00:03:55;;;;;;;9.43;1.93;;;9.20;99.90;;;;;;4973135;28;20208;-87
2022/01/04 00:06:21;;;;;;;2.00;1.20;;;9.30;99.90;;;;;;4957711;28;20224;-86
2022/01/04 00:08:47;;;;;;;3.20;0.73;;;9.30;99.90;;;;;;4955178;28;20224;-87
2022/01/04 00:13:42;;;;;;;1.67;1.57;;;9.30;99.90;;;;;;4992275;28;20208;-86
2022/01/04 00:16:10;;;;;;;1.00;0.93;;;9.40;99.90;;;;;;4969839;28;20205;-88
2022/01/04 00:18:38;;;;;;;5.10;1.20;;;9.40;99.90;;;;;;4973229;28;20228;-87
2022/01/04 00:21:04;;;;;;;4.83;0.80;;;9.40;99.90;;;;;;4971105;28;20217;-90
2022/01/04 00:23:30;;;;;;;3.20;2.20;;;9.40;99.90;;;;;;4990885;28;20856;-86
2022/01/04 00:25:56;;;;;;;1.20;0.83;;;9.40;99.90;;;;;;4957729;28;20191;-87
2022/01/04 00:28:22;;;;;;;9.93;2.27;;;9.40;99.90;;;;;;4956757;28;20648;-88
2022/01/04 00:30:48;;;;;;;0.50;0.23;;;9.50;99.90;;;;;;4991280;28;20362;-87
2022/01/04 00:33:17;;;;;;;3.37;0.80;;;9.50;99.90;;;;;;4955160;28;20733;-87
2022/01/04 00:35:44;;;;;;;3.80;1.00;;;9.50;99.90;;;;;;4989557;28;20219;-88
2022/01/04 00:38:10;;;;;;;1.03;0.60;;;9.60;99.90;;;;;;4973248;28;20208;-86
2022/01/04 00:40:36;;;;;;;9.00;0.80;;;9.60;99.90;;;;;;4988907;28;20211;-87
2022/01/04 00:43:03;;;;;;;5.40;1.70;;;9.60;99.90;;;;;;4971284;28;20216;-88
2022/01/04 00:45:35;;;;;;;2.87;0.80;;;9.60;99.90;;;;;;4974178;28;20688;-86
2022/01/04 00:50:30;;;;;;;2.27;0.67;;;9.60;99.90;;;;;;4988764;28;20183;-86
2022/01/04 00:52:57;;;;;;;1.23;0.63;;;9.60;99.90;;;;;;4972989;28;20176;-87
2022/01/04 00:55:22;;;;;;;7.80;2.83;;;9.60;99.90;;;;;;4972186;28;20626;-86
2022/01/04 00:57:48;;;;;;;9.10;2.43;;;9.70;99.90;;;;;;4988523;28;20212;-86
2022/01/04 01:00:16;;;;;;;3.83;1.30;;;9.70;99.90;;;;;;4956868;28;20204;-88
2022/01/04 01:02:43;;;;;;;1.90;0.80;;;9.70;99.90;;;;;;4988031;28;20216;-86
2022/01/04 01:05:10;;;;;;;5.13;1.40;;;9.70;99.90;;;;;;4973304;28;20684;-88
2022/01/04 01:07:36;;;;;;;13.27;1.50;;;9.60;99.90;;;;;;4972207;28;20641;-87
2022/01/04 01:12:49;;;;;;;9.23;1.53;;;9.70;99.90;;;;;;4988775;28;20784;-88
2022/01/04 01:15:15;;;;;;;6.37;1.43;;;9.70;99.90;;;;;;4971639;28;20274;-86
2022/01/04 01:17:41;;;;;;;2.53;0.67;;;9.70;99.90;;;;;;4972273;28;20231;-87
2022/01/04 01:20:10;;;;;;;4.30;2.27;;;9.80;99.90;;;;;;4973138;28;20184;-86
2022/01/04 01:22:36;;;;;;;0.40;0.40;;;9.80;99.90;;;;;;5004944;28;20266;-86
2022/01/04 01:25:04;;;;;;;13.00;2.27;;;9.80;99.90;;;;;;4953455;28;20223;-86
2022/01/04 01:27:30;;;;;;;4.90;1.73;;;9.80;99.90;;;;;;4987655;28;20215;-86
2022/01/04 01:29:55;;;;;;;0.40;0.20;;;9.80;99.90;;;;;;4972539;28;20280;-87
2022/01/04 01:32:21;;;;;;;9.17;1.97;;;9.90;99.90;;;;;;4955922;28;20568;-87
2022/01/04 01:34:47;;;;;;;0.83;0.83;;;9.90;99.90;;;;;;4970979;28;20327;-87
2022/01/04 01:37:13;;;;;;;3.70;1.13;;;9.90;99.90;;;;;;4972113;28;20236;-85
2022/01/04 01:39:39;;;;;;;17.27;2.83;;;9.90;99.90;;;;;;4971780;28;20250;-86
2022/01/04 01:42:05;;;;;;;4.03;1.60;;;9.80;99.90;;;;;;4988223;28;20226;-88
2022/01/04 01:44:32;;;;;;;5.10;2.10;;;9.80;99.90;;;;;;4971192;28;20213;-86
2022/01/04 01:46:59;;;;;;;2.93;0.67;;;9.80;99.90;;;;;;4988308;28;20236;-86
2022/01/04 01:49:25;;;;;;;11.13;0.97;;;9.80;99.90;;;;;;4969681;28;20246;-86
2022/01/04 01:51:51;;;;;;;8.80;1.13;;;9.70;99.90;;;;;;4987263;28;21147;-86
2022/01/04 01:54:17;;;;;;;3.40;1.87;;;9.70;99.90;;;;;;4987062;28;20222;-87
2022/01/04 01:56:43;;;;;;;19.40;1.90;;;9.70;99.90;;;;;;4988862;28;20223;-87
2022/01/04 01:59:09;;;;;;;3.90;0.87;;;9.70;99.90;;;;;;4970648;28;20207;-86
2022/01/04 02:01:35;;;;;;;2.07;1.17;;;9.70;99.90;;;;;;4954603;28;20208;-87
2022/01/04 02:04:01;;;;;;;7.17;3.57;;;9.60;99.90;;;;;;4955286;28;20224;-86
2022/01/04 02:06:30;;;;;;;4.20;1.60;;;9.60;99.90;;;;;;4972071;28;20212;-86
2022/01/04 02:09:00;;;;;;;0.07;0.07;;;9.60;99.90;;;;;;4972140;28;20214;-87
2022/01/04 02:11:30;;;;;;;6.97;1.33;;;9.60;99.90;;;;;;4987471;28;20192;-86
2022/01/04 02:13:56;;;;;;;0.70;0.70;;;9.50;99.90;;;;;;4989122;28;20180;-86
2022/01/04 02:16:24;;;;;;;13.17;1.93;;;9.50;99.90;;;;;;4971396;28;20689;-86
2022/01/04 02:18:50;;;;;;;0.60;0.60;;;9.60;99.90;;;;;;4989178;28;20219;-86
2022/01/04 02:21:15;;;;;;;5.67;2.43;;;9.60;99.90;;;;;;4956876;28;20576;-86
2022/01/04 02:23:41;;;;;;;4.07;1.10;;;9.60;99.90;;;;;;4959654;28;21803;-87
2022/01/04 02:26:07;;;;;;;10.27;1.50;;;9.60;99.90;;;;;;4991058;28;20219;-86
2022/01/04 02:28:33;;;;;;;3.90;1.73;;;9.60;99.90;;;;;;4959200;28;20212;-86
2022/01/04 02:30:58;;;;;;;9.17;0.67;;;9.60;99.90;;;;;;4975363;28;20214;-87
2022/01/04 02:33:24;;;;;;;3.80;2.70;;;9.60;99.90;;;;;;4991057;28;20223;-86
2022/01/04 02:35:50;;;;;;;6.30;1.53;;;9.60;99.90;;;;;;4975197;28;20281;-86
2022/01/04 02:38:16;;;;;;;0.53;0.50;;;9.60;99.90;;;;;;4974585;28;20208;-86
2022/01/04 02:40:42;;;;;;;6.03;1.57;;;9.60;99.90;;;;;;4972706;28;20209;-89
2022/01/04 02:43:07;;;;;;;2.63;1.70;;;9.60;99.90;;;;;;4960816;28;20717;-86
2022/01/04 02:45:33;;;;;;;3.40;0.40;;;9.60;99.90;;;;;;4981768;28;20215;-86
2022/01/04 02:47:59;;;;;;;0.80;0.80;;;9.60;99.90;;;;;;4968320;28;20271;-86
2022/01/04 02:50:25;;;;;;;2.30;0.77;;;9.60;99.90;;;;;;4963694;28;20218;-86
2022/01/04 02:52:51;;;;;;;0.30;0.30;;;9.60;99.90;;;;;;4982555;28;20201;-87
2022/01/04 02:55:18;;;;;;;3.03;1.03;;;9.60;99.90;;;;;;4948059;28;20231;-85
2022/01/04 02:57:44;;;;;;;1.17;1.17;;;9.60;99.90;;;;;;4966536;28;20597;-85
2022/01/04 03:00:13;;;;;;;2.27;0.50;;;9.60;99.90;;;;;;4959596;28;20697;-86
2022/01/04 03:02:40;;;;;;;3.43;0.97;;;9.60;99.90;;;;;;4980564;28;20192;-86
2022/01/04 03:05:07;;;;;;;7.50;1.43;;;9.50;99.90;;;;;;4978823;28;20188;-86
2022/01/04 03:07:33;;;;;;;2.30;2.20;;;9.50;99.90;;;;;;4963345;28;20224;-86
2022/01/04 03:09:59;;;;;;;5.37;0.97;;;9.50;99.90;;;;;;4965090;28;20667;-86
2022/01/04 03:12:25;;;;;;;4.10;1.03;;;9.50;99.90;;;;;;4963471;28;20294;-86
2022/01/04 03:14:50;;;;;;;4.27;2.47;;;9.40;99.90;;;;;;4965118;28;20212;-88
2022/01/04 03:17:16;;;;;;;0.97;0.97;;;9.50;99.90;;;;;;4974281;28;20194;-85
2022/01/04 03:19:42;;;;;;;0.93;0.80;;;9.40;99.90;;;;;;4971321;28;20231;-86
2022/01/04 03:22:08;;;;;;;1.90;1.07;;;9.50;99.90;;;;;;4957712;28;20235;-86
2022/01/04 03:24:33;;;;;;;2.70;0.90;;;9.50;99.90;;;;;;4971350;28;20217;-87
2022/01/04 03:27:00;;;;;;;1.47;0.63;;;9.50;99.90;;;;;;4956798;28;20814;-85
2022/01/04 03:29:26;;;;;;;4.60;1.43;;;9.50;99.90;;;;;;4972610;28;20200;-85
2022/01/04 03:31:54;;;;;;;7.43;1.70;;;9.50;99.90;;;;;;5005124;28;20263;-87
2022/01/04 03:34:19;;;;;;;0.60;0.50;;;9.50;99.90;;;;;;4989694;28;20717;-88
2022/01/04 03:36:46;;;;;;;7.13;2.10;;;9.50;99.90;;;;;;4973616;28;20223;-86
2022/01/04 03:39:12;;;;;;;4.67;1.47;;;9.50;99.90;;;;;;4989850;28;20235;-86
2022/01/04 03:41:40;;;;;;;6.40;0.87;;;9.50;99.90;;;;;;4988727;28;20200;-86
2022/01/04 03:44:08;;;;;;;4.10;1.37;;;9.50;99.90;;;;;;4990113;28;20184;-86
2022/01/04 03:46:34;;;;;;;3.80;1.90;;;9.50;99.90;;;;;;4973255;28;20219;-87
2022/01/04 03:49:00;;;;;;;1.37;0.93;;;9.50;99.90;;;;;;4957209;28;20228;-85
2022/01/04 03:51:26;;;;;;;5.17;1.30;;;9.50;99.90;;;;;;4973753;28;20220;-85
2022/01/04 03:53:52;;;;;;;2.97;0.90;;;9.50;99.90;;;;;;4973875;28;20211;-87
2022/01/04 03:56:17;;;;;;;6.73;1.00;;;9.50;99.90;;;;;;4973863;28;20199;-91
2022/01/04 03:58:43;;;;;;;0.83;0.73;;;9.40;99.90;;;;;;4972830;28;20248;-85
2022/01/04 04:01:09;;;;;;;3.30;0.87;;;9.50;99.90;;;;;;4956052;28;20638;-85
2022/01/04 04:03:36;;;;;;;1.37;1.17;;;9.40;99.90;;;;;;4958079;28;20220;-86
2022/01/04 04:06:02;;;;;;;5.10;1.53;;;9.50;99.90;;;;;;4971600;28;20216;-85
2022/01/04 04:08:28;;;;;;;3.37;0.87;;;9.50;99.90;;;;;;4956559;28;20211;-85
2022/01/04 04:10:54;;;;;;;1.57;1.03;;;9.40;99.90;;;;;;4974315;28;20675;-87
2022/01/04 04:13:20;;;;;;;1.70;1.60;;;9.40;99.90;;;;;;4989240;28;20220;-86
2022/01/04 04:15:46;;;;;;;7.20;1.27;;;9.40;99.90;;;;;;4956683;28;20677;-86
2022/01/04 04:18:13;;;;;;;3.37;2.53;;;9.40;99.90;;;;;;4989786;28;20219;-85
2022/01/04 04:20:39;;;;;;;4.27;0.73;;;9.40;99.90;;;;;;4973334;28;20184;-86
2022/01/04 04:23:06;;;;;;;1.03;0.40;;;9.40;99.90;;;;;;4971199;28;20282;-86
2022/01/04 04:25:33;;;;;;;2.00;1.30;;;9.40;99.90;;;;;;4990257;28;20681;-87
2022/01/04 04:27:59;;;;;;;10.07;0.73;;;9.40;99.90;;;;;;4988969;28;20270;-87
2022/01/04 04:30:26;;;;;;;3.77;1.47;;;9.40;99.90;;;;;;4973961;28;20617;-86
2022/01/04 04:32:52;;;;;;;14.33;2.10;;;9.50;99.90;;;;;;5005004;28;20220;-87
2022/01/04 04:35:17;;;;;;;1.43;0.67;;;9.50;99.90;;;;;;4957981;28;20239;-87
2022/01/04 04:37:43;;;;;;;4.37;1.53;;;9.50;99.90;;;;;;4970962;28;20220;-87
2022/01/04 04:40:10;;;;;;;2.83;1.70;;;9.50;99.90;;;;;;4973085;28;20212;-87
2022/01/04 04:42:36;;;;;;;6.30;1.20;;;9.50;99.90;;;;;;4971513;28;20240;-86
2022/01/04 04:45:03;;;;;;;13.30;1.33;;;9.60;99.90;;;;;;4988507;28;20553;-86
2022/01/04 04:47:29;;;;;;;0.83;0.83;;;9.50;99.90;;;;;;4955636;28;20207;-86
2022/01/04 04:49:55;;;;;;;1.10;0.73;;;9.60;99.90;;;;;;4989828;28;20176;-86
2022/01/04 04:52:21;;;;;;;1.17;1.07;;;9.60;99.90;;;;;;4972482;28;20219;-86
2022/01/04 04:54:48;;;;;;;2.47;1.87;;;9.60;99.90;;;;;;4971902;28;20204;-87
2022/01/04 04:57:14;;;;;;;1.70;1.60;;;9.60;99.90;;;;;;4972296;28;20208;-88
2022/01/04 04:59:40;;;;;;;8.10;2.43;;;9.60;99.90;;;;;;4955836;28;20220;-85
2022/01/04 05:02:09;;;;;;;2.57;1.50;;;9.60;99.90;;;;;;4988497;28;20196;-85
2022/01/04 05:04:35;;;;;;;3.50;0.90;;;9.60;99.90;;;;;;4971266;28;20584;-86
2022/01/04 05:07:01;;;;;;;2.50;0.60;;;9.60;99.90;;;;;;4953061;28;20307;-86
2022/01/04 05:09:28;;;;;;;4.23;0.83;;;9.60;99.90;;;;;;4959143;28;20256;-85
2022/01/04 05:11:53;;;;;;;2.00;0.57;;;9.70;99.90;;;;;;4976027;28;20568;-88
2022/01/04 05:14:19;;;;;;;0.40;0.40;;;9.50;99.90;;;;;;4977425;28;20195;-86
2022/01/04 05:16:45;;;;;;;0.40;0.40;;;9.30;99.90;;;;;;4976562;28;20216;-85
2022/01/04 05:19:11;;;;;;;0.73;0.47;;;9.20;99.90;;;;;;4977723;28;20239;-90
2022/01/04 05:21:36;;;;;;;0.10;0.10;;;9.10;99.90;;;;;;4945711;28;20219;-85
2022/01/04 05:24:03;;;;;;;3.63;1.40;;;9.10;99.90;;;;;;4942846;28;20221;-85
2022/01/04 05:26:29;;;;;;;2.90;0.87;;;9.20;99.90;;;;;;4977873;28;20243;-85
2022/01/04 05:28:54;;;;;;;9.20;1.67;;;9.40;99.90;;;;;;4969918;28;20637;-85
2022/01/04 05:31:20;;;;;;;3.97;1.43;;;9.40;99.90;;;;;;4962292;28;20748;-88
2022/01/04 05:33:46;;;;;;;2.20;0.53;;;9.50;99.90;;;;;;4961173;28;20239;-85
2022/01/04 05:36:12;;;;;;;0.53;0.53;;;9.60;99.90;;;;;;4944960;28;20222;-86
2022/01/04 05:38:37;;;;;;;1.27;0.80;;;9.60;99.90;;;;;;4943212;28;20208;-87
2022/01/04 05:41:03;;;;;;;6.50;0.93;;;9.60;99.90;;;;;;4966367;28;20187;-87
2022/01/04 05:43:29;;;;;;;4.90;1.30;;;9.70;99.90;;;;;;4943207;28;20216;-85
2022/01/04 05:45:55;;;;;;;3.20;1.27;;;9.70;99.90;;;;;;4959606;28;20612;-88
2022/01/04 05:48:21;;;;;;;3.97;1.23;;;9.70;99.90;;;;;;4961439;28;20231;-87
2022/01/04 05:50:48;;;;;;;5.13;1.07;;;9.70;99.90;;;;;;4962311;28;20212;-87
2022/01/04 05:53:13;;;;;;;1.53;1.30;;;9.80;99.90;;;;;;4988916;28;20241;-86
2022/01/04 05:55:39;;;;;;;1.60;1.07;;;9.80;99.90;;;;;;4991448;28;20259;-86
2022/01/04 05:58:05;;;;;;;3.67;1.40;;;9.80;99.90;;;;;;4990592;28;20223;-85
2022/01/04 06:00:31;;;;;;;1.23;1.23;;;9.80;99.90;;;;;;4975141;28;20314;-85
2022/01/04 06:03:01;;;;;;;0.30;0.30;;;9.70;99.90;;;;;;4990590;28;20557;-87
2022/01/04 06:05:27;;;;;;;0.93;0.87;;;9.60;99.90;;;;;;4959347;28;20184;-89
2022/01/04 06:07:53;;;;;;;2.43;1.40;;;9.50;99.90;;;;;;4991420;28;20191;-87
2022/01/04 06:10:19;;;;;;;3.57;0.97;;;9.50;99.90;;;;;;4974766;28;20681;-87
2022/01/04 06:15:14;;;;;;;0.53;0.53;;;9.40;99.90;;;;;;4991448;28;20227;-87
2022/01/04 06:17:42;;;;;;;0.83;0.83;;;9.30;99.90;;;;;;4992002;28;20192;-86
2022/01/04 06:20:11;;;;;;;3.10;1.67;;;9.30;99.90;;;;;;4989929;28;20185;-86
2022/01/04 06:22:37;;;;;;;0.50;0.50;;;9.30;99.90;;;;;;5007496;28;20350;-91
2022/01/04 06:25:05;;;;;;;0.90;0.70;;;9.30;99.90;;;;;;4990853;28;20752;-85
2022/01/04 06:27:32;;;;;;;4.17;1.17;;;9.30;99.90;;;;;;4974984;28;20279;-86
2022/01/04 06:29:58;;;;;;;5.43;1.37;;;9.40;99.90;;;;;;4974850;28;20277;-86
2022/01/04 06:32:24;;;;;;;0.50;0.50;;;9.40;99.90;;;;;;4958882;28;20290;-85
2022/01/04 06:34:51;;;;;;;1.50;1.17;;;9.40;99.90;;;;;;4973869;28;20302;-86
2022/01/04 06:37:17;;;;;;;1.03;0.80;;;9.40;99.90;;;;;;4991052;28;20724;-85
2022/01/04 06:39:43;;;;;;;2.10;1.50;;;9.40;99.90;;;;;;4975704;28;20591;-85
2022/01/04 06:42:09;;;;;;;2.43;0.90;;;9.40;99.90;;;;;;4958408;28;20226;-87
2022/01/04 06:44:35;;;;;;;5.53;0.77;;;9.40;99.90;;;;;;4973963;28;20248;-86
2022/01/04 06:47:02;;;;;;;10.03;1.20;;;9.40;99.90;;;;;;4991179;28;20176;-86
2022/01/04 06:49:27;;;;;;;4.53;1.40;;;9.40;99.90;;;;;;4974194;28;20688;-87
2022/01/04 06:51:53;;;;;;;3.10;1.83;;;9.30;99.90;;;;;;4957506;28;20224;-85
2022/01/04 06:54:20;;;;;;;4.20;1.70;;;9.30;99.90;;;;;;4958885;28;21262;-86
2022/01/04 06:56:47;;;;;;;0.83;0.77;;;9.30;99.90;;;;;;4959209;28;20218;-87
2022/01/04 06:59:14;;;;;;;7.63;1.63;;;9.30;99.90;;;;;;4991976;28;20282;-85
2022/01/04 07:01:39;;;;;;;1.33;1.07;;;9.30;99.90;;;;;;4990819;28;20208;-85
2022/01/04 07:04:06;;;;;;;2.27;0.70;;;9.30;99.90;;;;;;4974242;28;20204;-86
2022/01/04 07:06:32;;;;;;;0.97;0.97;;;9.30;99.90;;;;;;4990899;28;20212;-87
2022/01/04 07:08:58;;;;;;;1.10;1.00;;;9.30;99.90;;;;;;4974817;28;20289;-86
2022/01/04 07:11:24;;;;;;;2.03;1.93;;;9.40;99.90;;;;;;4990389;28;20184;-94
2022/01/04 07:13:54;;;;;;;1.63;1.10;;;9.30;99.90;;;;;;4974978;28;20200;-86
2022/01/04 07:16:19;;;;;;;0.20;0.20;;;9.30;99.90;;;;;;4990922;28;20231;-86
2022/01/04 07:18:48;;;;;;;2.60;1.00;;;9.30;99.90;;;;;;4975035;28;20223;-86
2022/01/04 07:21:17;;;;;;;3.10;1.40;;;9.30;99.90;;;;;;4976607;28;20243;-86
2022/01/04 07:23:44;;;;;;;1.40;1.07;;;9.30;99.90;;;;;;4992757;28;20216;-85
2022/01/04 07:26:17;;;;;;;1.70;0.73;;;9.30;99.90;;;;;;4989719;28;20184;-87
2022/01/04 07:28:45;;;;;;;0.73;0.43;;;9.30;99.90;;;;;;4991059;28;20281;-86
2022/01/04 07:31:11;;;;;;;0.17;0.17;;;9.30;99.90;;;;;;4989652;28;20218;-87
2022/01/04 07:33:38;;;;;;;0.50;0.40;;;9.00;99.90;;;;;;4972813;28;20231;-86
2022/01/04 07:36:06;;;;;;;0.10;0.10;;;8.80;99.90;;;;;;4991429;28;20241;-85
2022/01/04 07:38:33;;;;;;;1.40;0.27;;;8.70;99.90;;;;;;4990034;28;20668;-86
2022/01/04 07:40:59;;;;;;;0.20;0.20;;;8.60;99.90;;;;;;4973103;28;20188;-86
2022/01/04 07:43:24;;;;;;;0.20;0.20;;;8.50;99.90;;;;;;4956921;28;20246;-88
2022/01/04 07:45:50;;;;;;;0.30;0.30;;;8.50;99.90;;;;;;4957308;28;20220;-86
2022/01/04 07:48:16;;;;;;;1.13;1.03;;;8.50;99.90;;;;;;4972091;28;20224;-87
2022/01/04 07:50:42;;;;;;;1.80;0.40;;;8.40;99.90;;;;;;4973051;28;20223;-86
2022/01/04 07:53:08;;;;;;;2.00;0.63;;;8.30;99.90;;;;;;4956655;28;20179;-86
2022/01/04 07:55:35;;;;;;;6.90;0.30;;;8.30;99.90;;;;;;4972664;28;20693;-86
2022/01/04 07:58:01;;;;;;;0.20;0.20;;;8.30;99.90;;;;;;4988097;28;20274;-87
2022/01/04 08:00:28;;;;;;;0.40;0.40;;;8.20;99.90;;;;;;4971075;28;20217;-89
2022/01/04 08:02:54;;;;;;;5.40;0.40;;;8.20;99.90;;;;;;4989274;28;20230;-87
2022/01/04 08:05:20;;;;;;;0.30;0.30;;;8.10;99.90;;;;;;4989914;28;20180;-86
2022/01/04 08:07:46;;;;;;;0.10;0.10;;;8.10;99.90;;;;;;4988156;28;20247;-85
2022/01/04 08:10:13;;;;;;;0.30;0.30;;;8.00;99.90;;;;;;4956204;28;20216;-84
2022/01/04 08:12:40;;;;;;;0.40;0.20;;;8.00;99.90;;;;;;4988122;28;20648;-83
2022/01/04 08:15:07;;;;;;;0.30;0.30;;;8.00;99.90;;;;;;4972920;28;20204;-86
2022/01/04 08:17:34;;;;;;;0.10;0.10;;;8.00;99.90;;;;;;4988227;28;20172;-87
2022/01/04 08:20:01;;;;;;;0.30;0.30;;;7.90;99.90;;;;;;4990121;28;20585;-88
2022/01/04 08:22:32;;;;;;;0.60;0.60;;;7.90;99.90;;;;;;4972995;28;20220;-90
2022/01/04 08:25:07;;;;;;;0.77;0.77;;;7.90;99.90;;;;;;4974049;28;20215;-85
2022/01/04 08:27:33;;;;;;;0.10;0.10;;;8.00;99.90;;;;;;4973277;28;20208;-86
2022/01/04 08:30:00;;;;;;;0.20;0.20;;;8.00;99.90;;;;;;4971187;28;20220;-86
2022/01/04 08:32:25;;;;;;;0.93;0.40;;;8.00;99.90;;;;;;4990675;28;20585;-90
2022/01/04 08:34:51;;;;;;;0.20;0.20;;;7.90;99.90;;;;;;4988424;28;20227;-86
2022/01/04 08:37:18;;;;;;;0.47;0.47;;;7.90;99.90;;;;;;4989274;28;20239;-86
2022/01/04 08:39:44;;;;;;;0.17;0.17;;;7.90;99.90;;;;;;4972084;28;20228;-86
2022/01/04 08:42:10;;;;;;;0.60;0.50;;;7.90;99.90;;;;;;4974748;28;20215;-86
2022/01/04 08:44:39;;;;;;;0.17;0.17;;;7.90;99.90;;;;;;4954586;28;20561;-86
2022/01/04 08:47:12;;;;;;;0.20;0.20;;;7.90;99.90;;;;;;4974377;28;20189;-88
2022/01/04 08:49:38;;;;;;;0.10;0.10;;;7.90;99.90;;;;;;4972076;28;20211;-85
2022/01/04 08:52:06;;;;;;;0.23;0.23;;;7.90;99.90;;;;;;4973634;28;20216;-88
2022/01/04 08:54:32;;;;;;;0.73;0.73;;;7.80;99.90;;;;;;4971472;28;20217;-86
2022/01/04 08:56:58;;;;;;;0.37;0.37;;;7.90;99.90;;;;;;4989973;28;20634;-85
2022/01/04 08:59:25;;;;;;;0.20;0.20;;;7.90;99.90;;;;;;4974592;28;20269;-85
2022/01/04 09:01:51;;;;;;;0.10;0.10;;;7.80;99.90;;;;;;4974285;28;20636;-85
2022/01/04 09:04:17;;;;;;;1.23;0.30;;;7.80;99.90;;;;;;4972571;28;20211;-86
2022/01/04 09:06:43;;;;;;;0.30;0.30;;;7.80;99.90;;;;;;4958747;28;20204;-85
2022/01/04 09:09:28;;;;;;;0.30;0.30;;;7.70;99.90;;;;;;4962670;28;20603;-86
2022/01/04 09:12:13;;;;;;;0.30;0.30;;;7.60;99.90;;;;;;4961041;28;20246;-89
2022/01/04 09:15:05;;;;;;;0.43;0.30;;;7.50;99.90;;;;;;4961973;28;20218;-87
2022/01/04 09:20:16;;;;;;;0.20;0.20;;;7.60;99.90;;;;;;4992254;28;20235;-86
2022/01/04 09:22:42;;;;;;;0.20;0.20;;;7.40;99.90;;;;;;4974042;28;20636;-85
2022/01/04 09:25:09;;;;;;;0.10;0.10;;;7.30;99.90;;;;;;4974812;28;20212;-86
2022/01/04 09:27:36;;;;;;;0.27;0.27;;;7.20;99.90;;;;;;4972614;28;20216;-85
2022/01/04 09:30:04;;;;;;;0.10;0.10;;;7.20;99.90;;;;;;4991200;28;20269;-85
2022/01/04 09:32:35;;;;;;;0.20;0.20;;;7.20;99.90;;;;;;4989263;28;20188;-87
2022/01/04 09:35:02;;;;;;;0.20;0.20;;;7.20;99.90;;;;;;4973505;28;20224;-85
2022/01/04 09:37:28;;;;;;;0.30;0.30;;;7.20;99.90;;;;;;4975133;28;20291;-88
2022/01/04 09:39:54;;;;;;;0.20;0.20;;;7.30;99.90;;;;;;4991604;28;20303;-86
2022/01/04 09:42:21;;;;;;;0.20;0.20;;;7.30;99.90;;;;;;4972528;28;20695;-85
2022/01/04 09:44:48;;;;;;;0.20;0.20;;;7.30;99.90;;;;;;4985404;28;20208;-88
2022/01/04 09:47:13;;;;;;;0.30;0.30;;;7.30;99.90;;;;;;4976833;28;20199;-85
2022/01/04 09:49:40;;;;;;;0.20;0.20;;;7.30;99.90;;;;;;4959045;28;20281;-85
2022/01/04 09:52:08;;;;;;;0.10;0.10;;;7.30;99.90;;;;;;4958940;28;20207;-85
2022/01/04 09:54:37;;;;;;;0.10;0.10;;;7.00;99.90;;;;;;4972772;28;20212;-85
2022/01/04 09:57:03;;;;;;;0.87;0.53;;;6.90;99.90;;;;;;4989620;28;20215;-85
2022/01/04 09:59:29;;;;;;;0.50;0.50;;;6.90;99.90;;;;;;4972672;28;20207;-86
2022/01/04 10:02:02;;;;;;;0.27;0.27;;;6.90;99.90;;;;;;4970197;28;20185;-86
2022/01/04 10:04:27;;;;;;;0.30;0.30;;;6.70;99.90;;;;;;4972120;28;20311;-88
2022/01/04 10:07:12;;;;;;;0.30;0.30;;;6.70;99.90;;;;;;4969012;28;20299;-85
2022/01/04 10:09:44;;;;;;;0.10;0.10;;;6.80;99.90;;;;;;5003424;28;20216;-86
2022/01/04 10:12:11;;;;;;;0.20;0.20;;;6.90;99.90;;;;;;4987085;28;20647;-86
2022/01/04 10:14:40;;;;;;;1.50;1.50;;;7.00;99.90;;;;;;4972570;28;20330;-87
2022/01/04 10:17:13;;;;;;;0.30;0.30;;;7.00;99.90;;;;;;4986357;28;20188;-87
2022/01/04 10:19:45;;;;;;;0.30;0.30;;;7.00;99.90;;;;;;5003628;28;20744;-87
2022/01/04 10:22:19;;;;;;;0.20;0.20;;;7.10;99.90;;;;;;4988463;28;20204;-86
2022/01/04 10:24:48;;;;;;;0.10;0.10;;;7.10;99.90;;;;;;4987071;28;20212;-86
2022/01/04 10:27:43;;;;;;;0.10;0.10;;;7.10;99.90;;;;;;4987933;28;20275;-87
2022/01/04 10:30:17;;;;;;;0.10;0.10;;;7.10;99.90;;;;;;4983680;28;20686;-90
2022/01/04 10:32:52;;;;;;;0.20;0.20;;;7.10;99.90;;;;;;4986097;28;20294;-87
2022/01/04 10:35:33;;;;;;;0.10;0.10;;;7.10;99.90;;;;;;4983827;28;20255;-87
2022/01/04 10:38:19;;;;;;;0.30;0.30;;;7.10;99.90;;;;;;5004150;28;20684;-86
2022/01/04 10:40:50;;;;;;;0.10;0.10;;;7.20;99.90;;;;;;4991249;28;20294;-87
2022/01/04 10:43:22;;;;;;;0.20;0.20;;;7.20;99.90;;;;;;4992143;28;20755;-85
2022/01/04 10:45:49;;;;;;;1.60;1.03;;;7.10;99.90;;;;;;4991425;28;20212;-86
2022/01/04 10:48:22;;;;;;;4.53;0.40;;;7.10;99.90;;;;;;4974071;28;20222;-87
2022/01/04 10:50:54;;;;;;;0.20;0.20;;;7.10;99.90;;;;;;4990458;28;20226;-86
2022/01/04 10:53:27;;;;;;;0.43;0.20;;;7.20;99.90;;;;;;4990462;28;20227;-86
2022/01/04 10:56:13;;;;;;;0.60;0.57;;;7.20;99.90;;;;;;5006064;28;20291;-87
2022/01/04 10:58:44;;;;;;;0.10;0.10;;;7.40;99.90;;;;;;5005802;28;20282;-85
2022/01/04 11:01:14;;;;;;;0.20;0.20;;;7.50;99.90;;;;;;4989616;28;20235;-86
2022/01/04 11:03:54;;;;;;;2.43;0.73;;;7.70;99.90;;;;;;4989430;28;20274;-87
2022/01/04 11:06:33;;;;;;;0.20;0.20;;;7.80;99.90;;;;;;4972753;28;20720;-86
2022/01/04 11:08:59;;;;;;;0.20;0.20;;;7.90;99.90;;;;;;4987979;28;20220;-85
2022/01/04 11:11:26;;;;;;;0.20;0.20;;;7.80;99.90;;;;;;4990343;28;20194;-93
2022/01/04 11:13:52;;;;;;;0.10;0.10;;;7.90;99.90;;;;;;4989448;28;20267;-88
2022/01/04 11:16:23;;;;;;;0.10;0.10;;;7.80;99.90;;;;;;4989242;28;20278;-85
2022/01/04 11:18:52;;;;;;;0.40;0.40;;;7.90;99.90;;;;;;4988555;28;20212;-86
2022/01/04 11:21:31;;;;;;;0.10;0.10;;;7.90;99.90;;;;;;4988535;28;20577;-85
2022/01/04 11:24:01;;;;;;;0.20;0.20;;;7.80;99.90;;;;;;5004381;28;20573;-86
2022/01/04 11:26:27;;;;;;;0.20;0.20;;;7.70;99.90;;;;;;5005169;28;20172;-85
2022/01/04 11:28:54;;;;;;;0.20;0.20;;;7.70;99.90;;;;;;4990051;28;20188;-87
2022/01/04 11:31:47;;;;;;;0.30;0.30;;;7.70;99.90;;;;;;4971583;28;20577;-85
2022/01/04 11:34:49;;;;;;;0.20;0.20;;;7.80;99.90;;;;;;4986306;28;20236;-84
2022/01/04 11:37:21;;;;;;;0.57;0.50;;;7.80;99.90;;;;;;4987768;28;20219;-86
2022/01/04 11:39:47;;;;;;;0.33;0.33;;;7.80;99.90;;;;;;4987858;28;20307;-85
2022/01/04 11:42:34;;;;;;;0.30;0.30;;;7.80;99.90;;;;;;4971525;28;20355;-85
2022/01/04 11:45:00;;;;;;;2.53;0.40;;;7.70;99.90;;;;;;5004090;28;20228;-84
2022/01/04 11:47:31;;;;;;;0.20;0.20;;;7.40;99.90;;;;;;4971216;28;20211;-86
2022/01/04 11:50:10;;;;;;;0.20;0.20;;;7.20;99.90;;;;;;4972427;28;20670;-84
2022/01/04 11:52:55;;;;;;;0.40;0.30;;;7.10;99.90;;;;;;4988335;28;20216;-85
2022/01/04 11:55:24;;;;;;;0.30;0.30;;;7.10;99.90;;;;;;4988201;28;20270;-84
2022/01/04 11:57:57;;;;;;;0.10;0.10;;;7.10;99.90;;;;;;4987745;28;20231;-84
2022/01/04 12:00:40;;;;;;;0.20;0.20;;;7.20;99.90;;;;;;4989158;28;20220;-85
2022/01/04 12:03:14;;;;;;;0.80;0.80;;;7.20;99.90;;;;;;4988148;28;20215;-86
2022/01/04 12:05:59;;;;;;;0.10;0.10;;;7.20;99.90;;;;;;4989678;28;20232;-85
2022/01/04 12:08:32;;;;;;;0.70;0.30;;;7.20;99.90;;;;;;4970969;28;20298;-88
2022/01/04 12:10:57;;;;;;;0.40;0.37;;;7.20;99.90;;;;;;4972901;28;20196;-86
2022/01/04 12:13:25;;;;;;;0.93;0.50;;;7.30;99.90;;;;;;4971040;28;20246;-85
2022/01/04 12:15:53;;;;;;;1.60;1.10;;;7.30;99.90;;;;;;4970223;28;20223;-85
2022/01/04 12:18:22;;;;;;;0.20;0.20;;;7.20;99.90;;;;;;4986679;28;20232;-86
2022/01/04 12:20:57;;;;;;;3.90;0.47;;;7.20;99.90;;;;;;4990243;28;20283;-85
2022/01/04 12:23:31;;;;;;;0.30;0.30;;;7.30;99.90;;;;;;5002079;28;20194;-86
2022/01/04 12:26:08;;;;;;;0.50;0.50;;;7.20;99.90;;;;;;4987722;28;20210;-86
2022/01/04 12:28:36;;;;;;;0.63;0.40;;;7.40;99.90;;;;;;4986804;28;20230;-87
2022/01/04 12:31:20;;;;;;;8.73;0.70;;;7.30;99.90;;;;;;4986065;28;20220;-86
2022/01/04 12:33:49;;;;;;;0.27;0.27;;;7.40;99.90;;;;;;5001643;28;20219;-86
2022/01/04 12:36:34;;;;;;;0.73;0.73;;;7.40;99.90;;;;;;4986259;28;20224;-86
2022/01/04 12:39:15;;;;;;;1.20;0.37;;;7.40;99.90;;;;;;4969580;28;20227;-86
2022/01/04 12:41:45;;;;;;;0.70;0.70;;;7.40;99.90;;;;;;4987353;28;20626;-88
2022/01/04 12:44:14;;;;;;;0.40;0.40;;;7.50;99.90;;;;;;4986612;28;20234;-85
2022/01/04 12:46:42;;;;;;;0.20;0.20;;;7.50;99.90;;;;;;4986179;28;20216;-87
2022/01/04 12:49:10;;;;;;;0.20;0.20;;;7.50;99.90;;;;;;4986343;28;20211;-86
2022/01/04 12:51:52;;;;;;;0.30;0.30;;;7.50;99.90;;;;;;4985922;28;20306;-86
2022/01/04 12:54:19;;;;;;;0.67;0.67;;;7.60;99.90;;;;;;4986209;28;20250;-87
2022/01/04 12:56:52;;;;;;;0.30;0.30;;;7.60;99.90;;;;;;4986884;28;20673;-84
2022/01/04 12:59:23;;;;;;;0.30;0.30;;;7.60;99.90;;;;;;4986655;28;20226;-87
2022/01/04 13:01:50;;;;;;;6.30;0.40;;;7.70;99.90;;;;;;4985735;28;20228;-88
2022/01/04 13:04:26;;;;;;;0.33;0.30;;;7.80;99.90;;;;;;4984486;28;20294;-87
2022/01/04 13:06:52;;;;;;;0.40;0.40;;;7.90;99.90;;;;;;4985513;28;20243;-87
2022/01/04 13:09:37;;;;;;;0.77;0.77;;;7.80;99.90;;;;;;4972757;28;20695;-88
2022/01/04 13:12:03;;;;;;;2.33;0.87;;;7.90;99.90;;;;;;4986988;28;20688;-87
2022/01/04 13:14:33;;;;;;;0.20;0.20;;;7.80;99.90;;;;;;4969386;28;20206;-86
2022/01/04 13:17:07;;;;;;;0.50;0.50;;;7.80;99.90;;;;;;4986438;28;20173;-86